sensor_id;sensor_type;location;lat;lon;timestamp;P1;durP1;ratioP1;P2;durP2;ratioP2
8044;SDS011;4065;48.754;9.982;2023-08-06T00:00:47;10.05;;;8.65;;
8044;SDS011;4065;48.754;9.982;2023-08-06T00:04:08;8.82;;;8.02;;
8044;SDS011;4065;48.754;9.982;2023-08-06T00:07:30;11.45;;;8.10;;
8044;SDS011;4065;48.754;9.982;2023-08-06T00:10:52;9.63;;;8.40;;
8044;SDS011;4065;48.754;9.982;2023-08-06T00:14:14;9.82;;;8.15;;
8044;SDS011;4065;48.754;9.982;2023-08-06T00:17:39;8.88;;;8.00;;
8044;SDS011;4065;48.754;9.982;2023-08-06T00:21:01;9.63;;;7.65;;
8044;SDS011;4065;48.754;9.982;2023-08-06T00:24:22;9.52;;;8.63;;
8044;SDS011;4065;48.754;9.982;2023-08-06T00:27:44;10.55;;;9.13;;
8044;SDS011;4065;48.754;9.982;2023-08-06T00:31:06;9.13;;;8.23;;
8044;SDS011;4065;48.754;9.982;2023-08-06T00:34:29;9.68;;;8.73;;
8044;SDS011;4065;48.754;9.982;2023-08-06T00:37:51;9.48;;;8.43;;
8044;SDS011;4065;48.754;9.982;2023-08-06T00:41:13;9.52;;;8.57;;
8044;SDS011;4065;48.754;9.982;2023-08-06T00:44:35;9.02;;;8.23;;
8044;SDS011;4065;48.754;9.982;2023-08-06T00:47:57;10.98;;;9.35;;
8044;SDS011;4065;48.754;9.982;2023-08-06T00:51:20;9.38;;;8.38;;
8044;SDS011;4065;48.754;9.982;2023-08-06T00:54:44;13.27;;;8.50;;
8044;SDS011;4065;48.754;9.982;2023-08-06T00:58:06;9.23;;;8.32;;
8044;SDS011;4065;48.754;9.982;2023-08-06T01:01:28;8.50;;;7.50;;
8044;SDS011;4065;48.754;9.982;2023-08-06T01:04:50;9.45;;;8.45;;
8044;SDS011;4065;48.754;9.982;2023-08-06T01:08:15;9.85;;;8.30;;
8044;SDS011;4065;48.754;9.982;2023-08-06T01:11:44;8.88;;;7.97;;
8044;SDS011;4065;48.754;9.982;2023-08-06T01:15:14;8.40;;;7.30;;
8044;SDS011;4065;48.754;9.982;2023-08-06T01:18:38;8.73;;;7.32;;
8044;SDS011;4065;48.754;9.982;2023-08-06T01:22:03;7.65;;;6.72;;
8044;SDS011;4065;48.754;9.982;2023-08-06T01:25:27;7.70;;;6.82;;
8044;SDS011;4065;48.754;9.982;2023-08-06T01:28:54;8.10;;;7.30;;
8044;SDS011;4065;48.754;9.982;2023-08-06T01:32:20;7.45;;;6.75;;
8044;SDS011;4065;48.754;9.982;2023-08-06T01:35:42;8.73;;;7.40;;
8044;SDS011;4065;48.754;9.982;2023-08-06T01:39:06;8.23;;;7.07;;
8044;SDS011;4065;48.754;9.982;2023-08-06T01:42:27;7.20;;;6.50;;
8044;SDS011;4065;48.754;9.982;2023-08-06T01:45:49;8.77;;;6.57;;
8044;SDS011;4065;48.754;9.982;2023-08-06T01:49:11;9.20;;;7.70;;
8044;SDS011;4065;48.754;9.982;2023-08-06T01:52:33;7.63;;;6.82;;
8044;SDS011;4065;48.754;9.982;2023-08-06T01:55:56;8.15;;;6.40;;
8044;SDS011;4065;48.754;9.982;2023-08-06T01:59:18;7.70;;;6.93;;
8044;SDS011;4065;48.754;9.982;2023-08-06T02:02:40;6.93;;;6.32;;
8044;SDS011;4065;48.754;9.982;2023-08-06T02:06:02;8.48;;;6.60;;
8044;SDS011;4065;48.754;9.982;2023-08-06T02:09:24;7.22;;;6.57;;
8044;SDS011;4065;48.754;9.982;2023-08-06T02:12:47;7.65;;;6.85;;
8044;SDS011;4065;48.754;9.982;2023-08-06T02:16:09;7.28;;;6.65;;
8044;SDS011;4065;48.754;9.982;2023-08-06T02:19:30;6.88;;;6.18;;
8044;SDS011;4065;48.754;9.982;2023-08-06T02:22:52;9.07;;;6.57;;
8044;SDS011;4065;48.754;9.982;2023-08-06T02:26:14;15.70;;;7.57;;
8044;SDS011;4065;48.754;9.982;2023-08-06T02:29:38;6.85;;;5.95;;
8044;SDS011;4065;48.754;9.982;2023-08-06T02:33:01;7.57;;;6.82;;
8044;SDS011;4065;48.754;9.982;2023-08-06T02:36:23;7.75;;;6.88;;
8044;SDS011;4065;48.754;9.982;2023-08-06T02:39:45;11.23;;;7.40;;
8044;SDS011;4065;48.754;9.982;2023-08-06T02:43:06;7.93;;;6.97;;
8044;SDS011;4065;48.754;9.982;2023-08-06T02:46:30;7.70;;;6.57;;
8044;SDS011;4065;48.754;9.982;2023-08-06T02:49:52;12.65;;;7.25;;
8044;SDS011;4065;48.754;9.982;2023-08-06T02:53:13;7.75;;;6.95;;
8044;SDS011;4065;48.754;9.982;2023-08-06T02:56:35;10.75;;;7.38;;
8044;SDS011;4065;48.754;9.982;2023-08-06T02:59:57;8.00;;;7.20;;
8044;SDS011;4065;48.754;9.982;2023-08-06T03:03:20;8.13;;;7.03;;
8044;SDS011;4065;48.754;9.982;2023-08-06T03:06:42;8.25;;;7.25;;
8044;SDS011;4065;48.754;9.982;2023-08-06T03:10:04;8.05;;;7.18;;
8044;SDS011;4065;48.754;9.982;2023-08-06T03:13:27;8.07;;;7.20;;
8044;SDS011;4065;48.754;9.982;2023-08-06T03:16:49;7.55;;;6.82;;
8044;SDS011;4065;48.754;9.982;2023-08-06T03:20:12;8.80;;;6.60;;
8044;SDS011;4065;48.754;9.982;2023-08-06T03:23:34;7.88;;;7.07;;
8044;SDS011;4065;48.754;9.982;2023-08-06T03:26:56;8.10;;;6.03;;
8044;SDS011;4065;48.754;9.982;2023-08-06T03:30:18;7.03;;;6.32;;
8044;SDS011;4065;48.754;9.982;2023-08-06T03:33:39;8.07;;;6.45;;
8044;SDS011;4065;48.754;9.982;2023-08-06T03:37:03;8.43;;;6.13;;
8044;SDS011;4065;48.754;9.982;2023-08-06T03:40:25;5.95;;;5.45;;
8044;SDS011;4065;48.754;9.982;2023-08-06T03:43:47;6.03;;;5.32;;
8044;SDS011;4065;48.754;9.982;2023-08-06T03:47:08;10.73;;;5.50;;
8044;SDS011;4065;48.754;9.982;2023-08-06T03:50:30;7.00;;;5.30;;
8044;SDS011;4065;48.754;9.982;2023-08-06T03:53:53;8.85;;;5.10;;
8044;SDS011;4065;48.754;9.982;2023-08-06T03:57:15;8.57;;;5.32;;
8044;SDS011;4065;48.754;9.982;2023-08-06T04:00:37;5.90;;;5.30;;
8044;SDS011;4065;48.754;9.982;2023-08-06T04:03:59;5.68;;;4.95;;
8044;SDS011;4065;48.754;9.982;2023-08-06T04:07:21;6.20;;;4.80;;
8044;SDS011;4065;48.754;9.982;2023-08-06T04:10:44;6.28;;;4.78;;
8044;SDS011;4065;48.754;9.982;2023-08-06T04:14:06;5.13;;;4.53;;
8044;SDS011;4065;48.754;9.982;2023-08-06T04:17:27;5.07;;;4.45;;
8044;SDS011;4065;48.754;9.982;2023-08-06T04:20:49;5.43;;;4.70;;
8044;SDS011;4065;48.754;9.982;2023-08-06T04:24:12;5.47;;;4.53;;
8044;SDS011;4065;48.754;9.982;2023-08-06T04:27:36;8.18;;;5.05;;
8044;SDS011;4065;48.754;9.982;2023-08-06T04:31:01;5.85;;;4.45;;
8044;SDS011;4065;48.754;9.982;2023-08-06T04:34:23;7.47;;;4.97;;
8044;SDS011;4065;48.754;9.982;2023-08-06T04:37:45;5.07;;;4.60;;
8044;SDS011;4065;48.754;9.982;2023-08-06T04:41:07;5.10;;;4.47;;
8044;SDS011;4065;48.754;9.982;2023-08-06T04:44:30;5.63;;;4.75;;
8044;SDS011;4065;48.754;9.982;2023-08-06T04:47:52;9.27;;;4.50;;
8044;SDS011;4065;48.754;9.982;2023-08-06T04:51:14;7.25;;;4.53;;
8044;SDS011;4065;48.754;9.982;2023-08-06T04:54:36;6.53;;;4.93;;
8044;SDS011;4065;48.754;9.982;2023-08-06T04:57:57;4.88;;;4.00;;
8044;SDS011;4065;48.754;9.982;2023-08-06T05:01:21;5.13;;;4.63;;
8044;SDS011;4065;48.754;9.982;2023-08-06T05:04:42;5.32;;;3.95;;
8044;SDS011;4065;48.754;9.982;2023-08-06T05:08:04;4.68;;;4.28;;
8044;SDS011;4065;48.754;9.982;2023-08-06T05:11:27;5.25;;;4.55;;
8044;SDS011;4065;48.754;9.982;2023-08-06T05:14:48;5.40;;;4.72;;
8044;SDS011;4065;48.754;9.982;2023-08-06T05:18:13;6.82;;;4.72;;
8044;SDS011;4065;48.754;9.982;2023-08-06T05:21:35;6.47;;;4.15;;
8044;SDS011;4065;48.754;9.982;2023-08-06T05:24:57;6.95;;;4.80;;
8044;SDS011;4065;48.754;9.982;2023-08-06T05:28:19;5.55;;;4.20;;
8044;SDS011;4065;48.754;9.982;2023-08-06T05:31:41;4.97;;;4.20;;
8044;SDS011;4065;48.754;9.982;2023-08-06T05:35:04;5.28;;;4.68;;
8044;SDS011;4065;48.754;9.982;2023-08-06T05:38:27;6.05;;;4.60;;
8044;SDS011;4065;48.754;9.982;2023-08-06T05:41:49;5.40;;;4.40;;
8044;SDS011;4065;48.754;9.982;2023-08-06T05:45:10;4.80;;;4.30;;
8044;SDS011;4065;48.754;9.982;2023-08-06T05:48:34;6.88;;;3.90;;
8044;SDS011;4065;48.754;9.982;2023-08-06T05:51:57;8.02;;;3.72;;
8044;SDS011;4065;48.754;9.982;2023-08-06T05:55:20;4.97;;;3.78;;
8044;SDS011;4065;48.754;9.982;2023-08-06T05:58:42;4.78;;;3.70;;
8044;SDS011;4065;48.754;9.982;2023-08-06T06:02:04;6.72;;;3.35;;
8044;SDS011;4065;48.754;9.982;2023-08-06T06:05:26;4.93;;;3.65;;
8044;SDS011;4065;48.754;9.982;2023-08-06T06:08:49;4.65;;;3.47;;
8044;SDS011;4065;48.754;9.982;2023-08-06T06:12:11;5.40;;;3.97;;
8044;SDS011;4065;48.754;9.982;2023-08-06T06:15:33;4.32;;;3.22;;
8044;SDS011;4065;48.754;9.982;2023-08-06T06:18:55;5.50;;;4.70;;
8044;SDS011;4065;48.754;9.982;2023-08-06T06:22:17;2.65;;;2.40;;
8044;SDS011;4065;48.754;9.982;2023-08-06T06:25:43;3.13;;;2.30;;
8044;SDS011;4065;48.754;9.982;2023-08-06T06:29:05;3.75;;;2.70;;
8044;SDS011;4065;48.754;9.982;2023-08-06T06:32:27;3.53;;;2.15;;
8044;SDS011;4065;48.754;9.982;2023-08-06T06:35:48;3.78;;;2.13;;
8044;SDS011;4065;48.754;9.982;2023-08-06T06:39:10;4.22;;;2.67;;
8044;SDS011;4065;48.754;9.982;2023-08-06T06:42:33;4.32;;;3.65;;
8044;SDS011;4065;48.754;9.982;2023-08-06T06:45:56;5.40;;;4.07;;
8044;SDS011;4065;48.754;9.982;2023-08-06T06:49:19;5.07;;;3.58;;
8044;SDS011;4065;48.754;9.982;2023-08-06T06:52:41;4.45;;;2.63;;
8044;SDS011;4065;48.754;9.982;2023-08-06T06:56:03;4.63;;;3.67;;
8044;SDS011;4065;48.754;9.982;2023-08-06T06:59:26;6.57;;;4.70;;
8044;SDS011;4065;48.754;9.982;2023-08-06T07:02:48;9.57;;;4.80;;
8044;SDS011;4065;48.754;9.982;2023-08-06T07:06:11;6.78;;;3.60;;
8044;SDS011;4065;48.754;9.982;2023-08-06T07:09:33;5.35;;;2.63;;
8044;SDS011;4065;48.754;9.982;2023-08-06T07:12:55;3.72;;;2.30;;
8044;SDS011;4065;48.754;9.982;2023-08-06T07:16:18;3.35;;;2.20;;
8044;SDS011;4065;48.754;9.982;2023-08-06T07:19:43;6.68;;;5.00;;
8044;SDS011;4065;48.754;9.982;2023-08-06T07:23:05;6.05;;;5.45;;
8044;SDS011;4065;48.754;9.982;2023-08-06T07:26:27;2.60;;;2.40;;
8044;SDS011;4065;48.754;9.982;2023-08-06T07:29:52;5.18;;;3.22;;
8044;SDS011;4065;48.754;9.982;2023-08-06T07:33:15;3.33;;;2.80;;
8044;SDS011;4065;48.754;9.982;2023-08-06T07:36:37;2.30;;;2.10;;
8044;SDS011;4065;48.754;9.982;2023-08-06T07:39:59;3.60;;;1.90;;
8044;SDS011;4065;48.754;9.982;2023-08-06T07:43:32;2.58;;;1.50;;
8044;SDS011;4065;48.754;9.982;2023-08-06T07:46:54;2.20;;;1.80;;
8044;SDS011;4065;48.754;9.982;2023-08-06T07:50:19;1.63;;;1.50;;
8044;SDS011;4065;48.754;9.982;2023-08-06T07:53:41;1.67;;;1.58;;
8044;SDS011;4065;48.754;9.982;2023-08-06T07:57:06;2.95;;;1.90;;
8044;SDS011;4065;48.754;9.982;2023-08-06T08:00:28;4.85;;;3.10;;
8044;SDS011;4065;48.754;9.982;2023-08-06T08:03:50;2.17;;;1.98;;
8044;SDS011;4065;48.754;9.982;2023-08-06T08:07:14;2.15;;;2.05;;
8044;SDS011;4065;48.754;9.982;2023-08-06T08:10:36;11.45;;;10.25;;
8044;SDS011;4065;48.754;9.982;2023-08-06T08:13:58;5.63;;;5.03;;
8044;SDS011;4065;48.754;9.982;2023-08-06T08:17:20;3.38;;;3.10;;
8044;SDS011;4065;48.754;9.982;2023-08-06T08:20:43;3.25;;;2.60;;
8044;SDS011;4065;48.754;9.982;2023-08-06T08:24:09;4.78;;;3.22;;
8044;SDS011;4065;48.754;9.982;2023-08-06T08:27:31;2.58;;;2.38;;
8044;SDS011;4065;48.754;9.982;2023-08-06T08:30:53;3.30;;;2.72;;
8044;SDS011;4065;48.754;9.982;2023-08-06T08:34:15;4.20;;;3.55;;
8044;SDS011;4065;48.754;9.982;2023-08-06T08:37:37;4.57;;;4.18;;
8044;SDS011;4065;48.754;9.982;2023-08-06T08:41:01;2.85;;;2.65;;
8044;SDS011;4065;48.754;9.982;2023-08-06T08:44:23;2.55;;;2.35;;
8044;SDS011;4065;48.754;9.982;2023-08-06T08:47:48;2.55;;;2.05;;
8044;SDS011;4065;48.754;9.982;2023-08-06T08:51:10;4.35;;;3.65;;
8044;SDS011;4065;48.754;9.982;2023-08-06T08:54:33;3.10;;;2.67;;
8044;SDS011;4065;48.754;9.982;2023-08-06T08:57:57;3.70;;;3.10;;
8044;SDS011;4065;48.754;9.982;2023-08-06T09:01:19;3.40;;;3.10;;
8044;SDS011;4065;48.754;9.982;2023-08-06T09:04:42;4.13;;;2.85;;
8044;SDS011;4065;48.754;9.982;2023-08-06T09:08:04;2.40;;;2.20;;
8044;SDS011;4065;48.754;9.982;2023-08-06T09:11:27;4.03;;;3.08;;
8044;SDS011;4065;48.754;9.982;2023-08-06T09:14:50;2.97;;;2.72;;
8044;SDS011;4065;48.754;9.982;2023-08-06T09:18:12;3.65;;;2.58;;
8044;SDS011;4065;48.754;9.982;2023-08-06T09:21:36;2.25;;;1.90;;
8044;SDS011;4065;48.754;9.982;2023-08-06T09:24:58;2.20;;;2.00;;
8044;SDS011;4065;48.754;9.982;2023-08-06T09:28:20;2.03;;;1.83;;
8044;SDS011;4065;48.754;9.982;2023-08-06T09:31:46;3.95;;;2.42;;
8044;SDS011;4065;48.754;9.982;2023-08-06T09:35:10;3.58;;;3.22;;
8044;SDS011;4065;48.754;9.982;2023-08-06T09:38:37;2.00;;;1.90;;
8044;SDS011;4065;48.754;9.982;2023-08-06T09:42:00;1.60;;;1.50;;
8044;SDS011;4065;48.754;9.982;2023-08-06T09:45:28;1.83;;;1.30;;
8044;SDS011;4065;48.754;9.982;2023-08-06T09:48:51;1.40;;;1.30;;
8044;SDS011;4065;48.754;9.982;2023-08-06T09:52:13;2.15;;;1.90;;
8044;SDS011;4065;48.754;9.982;2023-08-06T09:55:36;1.58;;;1.48;;
8044;SDS011;4065;48.754;9.982;2023-08-06T09:58:58;1.67;;;1.50;;
8044;SDS011;4065;48.754;9.982;2023-08-06T10:02:22;1.67;;;1.30;;
8044;SDS011;4065;48.754;9.982;2023-08-06T10:05:48;1.67;;;1.30;;
8044;SDS011;4065;48.754;9.982;2023-08-06T10:09:10;1.60;;;1.30;;
8044;SDS011;4065;48.754;9.982;2023-08-06T10:12:32;3.45;;;2.70;;
8044;SDS011;4065;48.754;9.982;2023-08-06T10:15:56;2.33;;;1.73;;
8044;SDS011;4065;48.754;9.982;2023-08-06T10:19:18;1.70;;;1.60;;
8044;SDS011;4065;48.754;9.982;2023-08-06T10:22:43;2.30;;;2.10;;
8044;SDS011;4065;48.754;9.982;2023-08-06T10:26:05;2.60;;;2.00;;
8044;SDS011;4065;48.754;9.982;2023-08-06T10:29:36;5.88;;;3.40;;
8044;SDS011;4065;48.754;9.982;2023-08-06T10:32:59;2.10;;;1.70;;
8044;SDS011;4065;48.754;9.982;2023-08-06T10:36:21;1.85;;;1.60;;
8044;SDS011;4065;48.754;9.982;2023-08-06T10:39:49;2.15;;;2.05;;
8044;SDS011;4065;48.754;9.982;2023-08-06T10:43:25;1.40;;;1.30;;
8044;SDS011;4065;48.754;9.982;2023-08-06T10:46:48;1.60;;;1.50;;
8044;SDS011;4065;48.754;9.982;2023-08-06T10:50:12;1.40;;;1.30;;
8044;SDS011;4065;48.754;9.982;2023-08-06T10:53:36;1.52;;;1.20;;
8044;SDS011;4065;48.754;9.982;2023-08-06T10:57:00;1.85;;;1.27;;
8044;SDS011;4065;48.754;9.982;2023-08-06T11:00:22;3.50;;;3.20;;
8044;SDS011;4065;48.754;9.982;2023-08-06T11:03:45;2.75;;;1.70;;
8044;SDS011;4065;48.754;9.982;2023-08-06T11:07:09;1.80;;;1.70;;
8044;SDS011;4065;48.754;9.982;2023-08-06T11:10:32;1.65;;;1.55;;
8044;SDS011;4065;48.754;9.982;2023-08-06T11:13:55;2.45;;;1.20;;
8044;SDS011;4065;48.754;9.982;2023-08-06T11:17:20;1.55;;;1.45;;
8044;SDS011;4065;48.754;9.982;2023-08-06T11:20:42;2.63;;;2.42;;
8044;SDS011;4065;48.754;9.982;2023-08-06T11:24:04;2.60;;;2.40;;
8044;SDS011;4065;48.754;9.982;2023-08-06T11:27:27;1.67;;;1.40;;
8044;SDS011;4065;48.754;9.982;2023-08-06T11:30:51;1.70;;;1.50;;
8044;SDS011;4065;48.754;9.982;2023-08-06T11:34:14;1.95;;;1.40;;
8044;SDS011;4065;48.754;9.982;2023-08-06T11:37:37;1.55;;;1.45;;
8044;SDS011;4065;48.754;9.982;2023-08-06T11:41:01;1.40;;;1.30;;
8044;SDS011;4065;48.754;9.982;2023-08-06T11:44:23;1.40;;;1.30;;
8044;SDS011;4065;48.754;9.982;2023-08-06T11:47:50;1.27;;;1.23;;
8044;SDS011;4065;48.754;9.982;2023-08-06T11:51:13;3.70;;;1.50;;
8044;SDS011;4065;48.754;9.982;2023-08-06T11:54:36;1.40;;;1.30;;
8044;SDS011;4065;48.754;9.982;2023-08-06T11:57:59;1.40;;;1.30;;
8044;SDS011;4065;48.754;9.982;2023-08-06T12:01:25;1.40;;;1.30;;
8044;SDS011;4065;48.754;9.982;2023-08-06T12:05:01;1.38;;;1.20;;
8044;SDS011;4065;48.754;9.982;2023-08-06T12:08:26;1.45;;;1.35;;
8044;SDS011;4065;48.754;9.982;2023-08-06T12:11:48;1.40;;;1.30;;
8044;SDS011;4065;48.754;9.982;2023-08-06T12:15:10;11.77;;;7.85;;
8044;SDS011;4065;48.754;9.982;2023-08-06T12:18:33;16.42;;;10.05;;
8044;SDS011;4065;48.754;9.982;2023-08-06T12:21:56;2.80;;;2.45;;
8044;SDS011;4065;48.754;9.982;2023-08-06T12:25:18;2.13;;;2.00;;
8044;SDS011;4065;48.754;9.982;2023-08-06T12:28:40;3.17;;;2.70;;
8044;SDS011;4065;48.754;9.982;2023-08-06T12:32:02;2.78;;;1.95;;
8044;SDS011;4065;48.754;9.982;2023-08-06T12:35:25;3.03;;;2.20;;
8044;SDS011;4065;48.754;9.982;2023-08-06T12:38:48;2.25;;;2.05;;
8044;SDS011;4065;48.754;9.982;2023-08-06T12:42:10;2.60;;;2.40;;
8044;SDS011;4065;48.754;9.982;2023-08-06T12:45:32;2.42;;;2.22;;
8044;SDS011;4065;48.754;9.982;2023-08-06T12:48:54;2.28;;;2.08;;
8044;SDS011;4065;48.754;9.982;2023-08-06T12:52:17;1.83;;;1.73;;
8044;SDS011;4065;48.754;9.982;2023-08-06T12:55:41;2.20;;;2.00;;
8044;SDS011;4065;48.754;9.982;2023-08-06T12:59:03;2.58;;;2.20;;
8044;SDS011;4065;48.754;9.982;2023-08-06T13:02:27;2.47;;;2.00;;
8044;SDS011;4065;48.754;9.982;2023-08-06T13:05:50;3.03;;;2.20;;
8044;SDS011;4065;48.754;9.982;2023-08-06T13:09:12;2.42;;;2.22;;
8044;SDS011;4065;48.754;9.982;2023-08-06T13:12:40;4.30;;;2.45;;
8044;SDS011;4065;48.754;9.982;2023-08-06T13:16:02;2.88;;;2.53;;
8044;SDS011;4065;48.754;9.982;2023-08-06T13:19:24;3.97;;;2.47;;
8044;SDS011;4065;48.754;9.982;2023-08-06T13:22:46;2.83;;;2.20;;
8044;SDS011;4065;48.754;9.982;2023-08-06T13:26:10;2.60;;;2.40;;
8044;SDS011;4065;48.754;9.982;2023-08-06T13:29:33;2.85;;;2.50;;
8044;SDS011;4065;48.754;9.982;2023-08-06T13:32:56;3.92;;;2.60;;
8044;SDS011;4065;48.754;9.982;2023-08-06T13:36:18;3.53;;;3.03;;
8044;SDS011;4065;48.754;9.982;2023-08-06T13:39:40;2.67;;;2.47;;
8044;SDS011;4065;48.754;9.982;2023-08-06T13:43:03;3.30;;;3.00;;
8044;SDS011;4065;48.754;9.982;2023-08-06T13:46:26;2.80;;;2.60;;
8044;SDS011;4065;48.754;9.982;2023-08-06T13:49:49;2.60;;;2.40;;
8044;SDS011;4065;48.754;9.982;2023-08-06T13:53:11;2.60;;;2.40;;
8044;SDS011;4065;48.754;9.982;2023-08-06T13:56:34;2.58;;;2.20;;
8044;SDS011;4065;48.754;9.982;2023-08-06T13:59:57;2.38;;;2.22;;
8044;SDS011;4065;48.754;9.982;2023-08-06T14:03:21;2.42;;;2.22;;
8044;SDS011;4065;48.754;9.982;2023-08-06T14:06:43;2.50;;;2.30;;
8044;SDS011;4065;48.754;9.982;2023-08-06T14:10:05;2.65;;;2.45;;
8044;SDS011;4065;48.754;9.982;2023-08-06T14:13:29;2.97;;;2.13;;
8044;SDS011;4065;48.754;9.982;2023-08-06T14:16:51;2.30;;;2.10;;
8044;SDS011;4065;48.754;9.982;2023-08-06T14:20:14;2.70;;;2.50;;
8044;SDS011;4065;48.754;9.982;2023-08-06T14:23:38;5.18;;;3.00;;
8044;SDS011;4065;48.754;9.982;2023-08-06T14:27:01;2.38;;;2.17;;
8044;SDS011;4065;48.754;9.982;2023-08-06T14:30:24;3.15;;;2.30;;
8044;SDS011;4065;48.754;9.982;2023-08-06T14:33:46;3.70;;;2.65;;
8044;SDS011;4065;48.754;9.982;2023-08-06T14:37:09;2.47;;;2.28;;
8044;SDS011;4065;48.754;9.982;2023-08-06T14:40:31;2.85;;;2.10;;
8044;SDS011;4065;48.754;9.982;2023-08-06T14:43:58;5.38;;;2.17;;
8044;SDS011;4065;48.754;9.982;2023-08-06T14:47:19;2.50;;;2.30;;
8044;SDS011;4065;48.754;9.982;2023-08-06T14:50:41;3.88;;;2.40;;
8044;SDS011;4065;48.754;9.982;2023-08-06T14:54:05;2.70;;;2.50;;
8044;SDS011;4065;48.754;9.982;2023-08-06T14:57:26;2.20;;;2.08;;
8044;SDS011;4065;48.754;9.982;2023-08-06T15:00:49;4.72;;;4.05;;
8044;SDS011;4065;48.754;9.982;2023-08-06T15:04:10;4.07;;;2.90;;
8044;SDS011;4065;48.754;9.982;2023-08-06T15:07:32;4.10;;;3.70;;
8044;SDS011;4065;48.754;9.982;2023-08-06T15:10:57;3.40;;;2.83;;
8044;SDS011;4065;48.754;9.982;2023-08-06T15:14:22;2.63;;;2.42;;
8044;SDS011;4065;48.754;9.982;2023-08-06T15:17:44;3.15;;;2.45;;
8044;SDS011;4065;48.754;9.982;2023-08-06T15:21:06;3.42;;;2.85;;
8044;SDS011;4065;48.754;9.982;2023-08-06T15:24:28;3.20;;;2.58;;
8044;SDS011;4065;48.754;9.982;2023-08-06T15:27:51;3.10;;;2.80;;
8044;SDS011;4065;48.754;9.982;2023-08-06T15:31:13;3.60;;;2.60;;
8044;SDS011;4065;48.754;9.982;2023-08-06T15:34:36;3.83;;;2.70;;
8044;SDS011;4065;48.754;9.982;2023-08-06T15:37:58;4.18;;;2.72;;
8044;SDS011;4065;48.754;9.982;2023-08-06T15:41:22;2.70;;;2.47;;
8044;SDS011;4065;48.754;9.982;2023-08-06T15:44:46;3.08;;;2.85;;
8044;SDS011;4065;48.754;9.982;2023-08-06T15:48:08;2.97;;;2.72;;
8044;SDS011;4065;48.754;9.982;2023-08-06T15:51:30;2.95;;;2.75;;
8044;SDS011;4065;48.754;9.982;2023-08-06T15:54:53;2.72;;;2.30;;
8044;SDS011;4065;48.754;9.982;2023-08-06T15:58:15;2.40;;;2.20;;
8044;SDS011;4065;48.754;9.982;2023-08-06T16:01:38;3.22;;;2.30;;
8044;SDS011;4065;48.754;9.982;2023-08-06T16:05:00;2.63;;;2.42;;
8044;SDS011;4065;48.754;9.982;2023-08-06T16:08:22;2.72;;;2.47;;
8044;SDS011;4065;48.754;9.982;2023-08-06T16:11:44;2.70;;;2.47;;
8044;SDS011;4065;48.754;9.982;2023-08-06T16:15:07;2.40;;;2.20;;
8044;SDS011;4065;48.754;9.982;2023-08-06T16:18:32;2.45;;;2.25;;
8044;SDS011;4065;48.754;9.982;2023-08-06T16:21:53;2.85;;;2.63;;
8044;SDS011;4065;48.754;9.982;2023-08-06T16:25:16;4.35;;;2.85;;
8044;SDS011;4065;48.754;9.982;2023-08-06T16:28:40;3.08;;;2.53;;
8044;SDS011;4065;48.754;9.982;2023-08-06T16:32:02;2.90;;;2.45;;
8044;SDS011;4065;48.754;9.982;2023-08-06T16:35:27;3.83;;;2.67;;
8044;SDS011;4065;48.754;9.982;2023-08-06T16:38:49;2.67;;;2.30;;
8044;SDS011;4065;48.754;9.982;2023-08-06T16:42:11;5.18;;;3.58;;
8044;SDS011;4065;48.754;9.982;2023-08-06T16:45:35;3.00;;;2.42;;
8044;SDS011;4065;48.754;9.982;2023-08-06T16:48:58;3.30;;;3.00;;
8044;SDS011;4065;48.754;9.982;2023-08-06T16:52:21;2.70;;;2.50;;
8044;SDS011;4065;48.754;9.982;2023-08-06T16:55:43;3.22;;;2.38;;
8044;SDS011;4065;48.754;9.982;2023-08-06T16:59:05;2.60;;;2.40;;
8044;SDS011;4065;48.754;9.982;2023-08-06T17:02:27;3.30;;;3.00;;
8044;SDS011;4065;48.754;9.982;2023-08-06T17:05:48;3.05;;;2.60;;
8044;SDS011;4065;48.754;9.982;2023-08-06T17:09:12;3.42;;;3.10;;
8044;SDS011;4065;48.754;9.982;2023-08-06T17:12:34;2.70;;;2.50;;
8044;SDS011;4065;48.754;9.982;2023-08-06T17:15:56;2.65;;;2.42;;
8044;SDS011;4065;48.754;9.982;2023-08-06T17:19:18;3.08;;;2.88;;
8044;SDS011;4065;48.754;9.982;2023-08-06T17:22:40;2.97;;;2.22;;
8044;SDS011;4065;48.754;9.982;2023-08-06T17:26:04;3.45;;;2.58;;
8044;SDS011;4065;48.754;9.982;2023-08-06T17:29:26;3.20;;;2.65;;
8044;SDS011;4065;48.754;9.982;2023-08-06T17:32:48;7.40;;;5.35;;
8044;SDS011;4065;48.754;9.982;2023-08-06T17:36:09;21.38;;;13.48;;
8044;SDS011;4065;48.754;9.982;2023-08-06T17:39:31;6.43;;;5.53;;
8044;SDS011;4065;48.754;9.982;2023-08-06T17:42:55;4.40;;;4.00;;
8044;SDS011;4065;48.754;9.982;2023-08-06T17:46:17;4.10;;;3.80;;
8044;SDS011;4065;48.754;9.982;2023-08-06T17:49:39;2.67;;;2.47;;
8044;SDS011;4065;48.754;9.982;2023-08-06T17:53:01;2.50;;;2.25;;
8044;SDS011;4065;48.754;9.982;2023-08-06T17:56:22;3.10;;;2.17;;
8044;SDS011;4065;48.754;9.982;2023-08-06T17:59:46;2.80;;;2.60;;
8044;SDS011;4065;48.754;9.982;2023-08-06T18:03:08;3.35;;;2.78;;
8044;SDS011;4065;48.754;9.982;2023-08-06T18:06:30;2.83;;;2.63;;
8044;SDS011;4065;48.754;9.982;2023-08-06T18:09:51;3.08;;;2.78;;
8044;SDS011;4065;48.754;9.982;2023-08-06T18:13:13;3.05;;;2.85;;
8044;SDS011;4065;48.754;9.982;2023-08-06T18:16:37;4.47;;;2.92;;
8044;SDS011;4065;48.754;9.982;2023-08-06T18:19:58;3.33;;;3.03;;
8044;SDS011;4065;48.754;9.982;2023-08-06T18:23:20;4.00;;;3.20;;
8044;SDS011;4065;48.754;9.982;2023-08-06T18:26:42;3.22;;;3.03;;
8044;SDS011;4065;48.754;9.982;2023-08-06T18:30:05;3.78;;;3.47;;
8044;SDS011;4065;48.754;9.982;2023-08-06T18:33:28;6.80;;;5.13;;
8044;SDS011;4065;48.754;9.982;2023-08-06T18:36:50;4.90;;;3.75;;
8044;SDS011;4065;48.754;9.982;2023-08-06T18:40:12;4.07;;;3.10;;
8044;SDS011;4065;48.754;9.982;2023-08-06T18:43:36;4.07;;;3.22;;
8044;SDS011;4065;48.754;9.982;2023-08-06T18:46:58;5.88;;;3.28;;
8044;SDS011;4065;48.754;9.982;2023-08-06T18:50:21;3.22;;;2.90;;
8044;SDS011;4065;48.754;9.982;2023-08-06T18:53:43;5.90;;;3.63;;
8044;SDS011;4065;48.754;9.982;2023-08-06T18:57:05;3.92;;;3.63;;
8044;SDS011;4065;48.754;9.982;2023-08-06T19:00:29;5.00;;;3.47;;
8044;SDS011;4065;48.754;9.982;2023-08-06T19:03:52;3.75;;;3.45;;
8044;SDS011;4065;48.754;9.982;2023-08-06T19:07:15;4.18;;;3.33;;
8044;SDS011;4065;48.754;9.982;2023-08-06T19:10:37;4.90;;;3.20;;
8044;SDS011;4065;48.754;9.982;2023-08-06T19:13:59;4.75;;;3.10;;
8044;SDS011;4065;48.754;9.982;2023-08-06T19:17:22;4.07;;;3.67;;
8044;SDS011;4065;48.754;9.982;2023-08-06T19:20:44;4.68;;;3.38;;
8044;SDS011;4065;48.754;9.982;2023-08-06T19:24:08;4.18;;;3.80;;
8044;SDS011;4065;48.754;9.982;2023-08-06T19:27:30;4.88;;;3.25;;
8044;SDS011;4065;48.754;9.982;2023-08-06T19:30:52;4.03;;;3.28;;
8044;SDS011;4065;48.754;9.982;2023-08-06T19:34:14;4.25;;;3.67;;
8044;SDS011;4065;48.754;9.982;2023-08-06T19:37:36;4.88;;;3.13;;
8044;SDS011;4065;48.754;9.982;2023-08-06T19:41:03;3.53;;;3.22;;
8044;SDS011;4065;48.754;9.982;2023-08-06T19:44:25;5.18;;;3.35;;
8044;SDS011;4065;48.754;9.982;2023-08-06T19:47:48;4.55;;;3.50;;
8044;SDS011;4065;48.754;9.982;2023-08-06T19:51:09;5.10;;;3.70;;
8044;SDS011;4065;48.754;9.982;2023-08-06T19:54:31;5.20;;;4.43;;
8044;SDS011;4065;48.754;9.982;2023-08-06T19:57:54;5.68;;;5.10;;
8044;SDS011;4065;48.754;9.982;2023-08-06T20:01:16;4.55;;;3.90;;
8044;SDS011;4065;48.754;9.982;2023-08-06T20:04:38;5.20;;;4.18;;
8044;SDS011;4065;48.754;9.982;2023-08-06T20:08:00;4.57;;;4.07;;
8044;SDS011;4065;48.754;9.982;2023-08-06T20:11:22;6.38;;;4.40;;
8044;SDS011;4065;48.754;9.982;2023-08-06T20:14:45;5.20;;;4.15;;
8044;SDS011;4065;48.754;9.982;2023-08-06T20:18:07;5.18;;;4.10;;
8044;SDS011;4065;48.754;9.982;2023-08-06T20:21:30;5.22;;;3.80;;
8044;SDS011;4065;48.754;9.982;2023-08-06T20:24:52;4.72;;;3.20;;
8044;SDS011;4065;48.754;9.982;2023-08-06T20:28:14;3.50;;;3.13;;
8044;SDS011;4065;48.754;9.982;2023-08-06T20:31:37;4.10;;;3.67;;
8044;SDS011;4065;48.754;9.982;2023-08-06T20:34:59;6.28;;;4.03;;
8044;SDS011;4065;48.754;9.982;2023-08-06T20:38:21;6.03;;;4.30;;
8044;SDS011;4065;48.754;9.982;2023-08-06T20:41:45;5.93;;;4.00;;
8044;SDS011;4065;48.754;9.982;2023-08-06T20:45:07;6.65;;;3.67;;
8044;SDS011;4065;48.754;9.982;2023-08-06T20:48:31;6.13;;;3.67;;
8044;SDS011;4065;48.754;9.982;2023-08-06T20:51:52;8.30;;;3.88;;
8044;SDS011;4065;48.754;9.982;2023-08-06T20:55:14;3.75;;;3.25;;
8044;SDS011;4065;48.754;9.982;2023-08-06T20:58:36;3.75;;;3.35;;